createdAt,value
2022-08-25T00:00:15.012Z,3.10
2022-08-25T00:02:54.969Z,2.83
2022-08-25T00:05:26.131Z,2.55
2022-08-25T00:07:55.676Z,2.90
2022-08-25T00:10:23.470Z,2.65
2022-08-25T00:12:51.307Z,2.55
2022-08-25T00:15:18.980Z,2.70
2022-08-25T00:17:46.725Z,3.00
2022-08-25T00:20:14.673Z,2.97
2022-08-25T00:22:42.564Z,2.60
2022-08-25T00:25:10.461Z,2.40
2022-08-25T00:27:38.289Z,2.88
2022-08-25T00:30:06.574Z,3.20
2022-08-25T00:32:34.406Z,2.97
2022-08-25T00:35:02.395Z,2.80
2022-08-25T00:37:30.363Z,3.38
2022-08-25T00:39:58.698Z,3.00
2022-08-25T00:42:26.974Z,2.92
2022-08-25T00:44:54.931Z,2.70
2022-08-25T00:47:22.670Z,2.50
2022-08-25T00:49:51.939Z,2.97
2022-08-25T00:52:24.691Z,2.72
2022-08-25T00:55:21.812Z,2.90
2022-08-25T00:57:53.266Z,3.38
2022-08-25T01:00:30.041Z,3.08
2022-08-25T01:02:58.202Z,2.88
2022-08-25T01:05:26.714Z,2.88
2022-08-25T01:07:58.550Z,3.13
2022-08-25T01:10:27.672Z,2.97
2022-08-25T01:12:57.964Z,3.47
2022-08-25T01:15:25.773Z,2.65
2022-08-25T01:17:54.940Z,2.95
2022-08-25T01:20:29.170Z,3.40
2022-08-25T01:22:57.430Z,2.95
2022-08-25T01:25:34.228Z,3.33
2022-08-25T01:28:02.392Z,3.25
2022-08-25T01:30:30.529Z,3.45
2022-08-25T01:32:58.421Z,3.13
2022-08-25T01:35:26.150Z,3.35
2022-08-25T01:37:53.846Z,3.40
2022-08-25T01:40:23.108Z,3.20
2022-08-25T01:42:54.061Z,2.70
2022-08-25T01:45:22.043Z,3.33
2022-08-25T01:47:49.778Z,3.58
2022-08-25T01:50:17.587Z,3.35
2022-08-25T01:52:48.332Z,3.30
2022-08-25T01:57:53.427Z,3.38
2022-08-25T02:00:22.653Z,3.97
2022-08-25T02:02:52.340Z,3.75
2022-08-25T02:05:23.704Z,3.38
2022-08-25T02:07:51.650Z,3.17
2022-08-25T02:10:19.320Z,3.85
2022-08-25T02:12:47.006Z,3.53
2022-08-25T02:15:14.698Z,3.72
2022-08-25T02:17:42.442Z,3.47
2022-08-25T02:20:10.292Z,3.40
2022-08-25T02:22:37.937Z,6.60
2022-08-25T02:25:06.425Z,4.05
2022-08-25T02:27:34.162Z,3.65
2022-08-25T02:30:01.932Z,5.60
2022-08-25T02:32:29.620Z,3.30
2022-08-25T02:34:57.312Z,3.30
2022-08-25T02:37:24.961Z,3.47
2022-08-25T02:39:53.250Z,3.72
2022-08-25T02:42:22.038Z,3.78
2022-08-25T02:44:49.727Z,3.90
2022-08-25T02:47:17.496Z,3.40
2022-08-25T02:49:50.434Z,3.70
2022-08-25T02:52:18.600Z,3.67
2022-08-25T02:54:46.368Z,4.07
2022-08-25T02:57:15.827Z,3.95
2022-08-25T02:59:43.463Z,3.90
2022-08-25T03:02:11.144Z,4.40
2022-08-25T03:04:38.865Z,4.32
2022-08-25T03:07:06.599Z,3.42
2022-08-25T03:09:34.498Z,3.65
2022-08-25T03:12:06.399Z,3.60
2022-08-25T03:14:34.197Z,3.35
2022-08-25T03:17:02.029Z,3.53
2022-08-25T03:19:30.334Z,3.80
2022-08-25T03:21:59.822Z,3.92
2022-08-25T03:24:28.033Z,4.00
2022-08-25T03:26:58.578Z,4.05
2022-08-25T03:29:31.396Z,4.57
2022-08-25T03:32:00.094Z,3.33
2022-08-25T03:34:29.283Z,4.18
2022-08-25T03:36:57.104Z,4.72
2022-08-25T03:39:25.613Z,4.03
2022-08-25T03:41:53.843Z,3.67
2022-08-25T03:44:22.215Z,3.85
2022-08-25T03:46:52.401Z,3.65
2022-08-25T03:49:22.901Z,4.07
2022-08-25T03:51:51.356Z,4.03
2022-08-25T03:54:34.636Z,3.53
2022-08-25T03:57:02.405Z,3.95
2022-08-25T03:59:30.085Z,4.03
2022-08-25T04:01:57.902Z,4.13
2022-08-25T04:04:25.485Z,4.35
2022-08-25T04:06:53.215Z,3.85
2022-08-25T04:09:21.046Z,4.40
2022-08-25T04:11:53.102Z,3.80
2022-08-25T04:14:23.478Z,4.53
2022-08-25T04:16:52.970Z,4.47
2022-08-25T04:19:21.220Z,4.20
2022-08-25T04:21:48.876Z,4.13
2022-08-25T04:24:16.770Z,4.68
2022-08-25T04:26:46.086Z,4.30
2022-08-25T04:29:14.726Z,4.00
2022-08-25T04:31:43.824Z,4.47
2022-08-25T04:34:28.489Z,4.30
2022-08-25T04:36:58.023Z,4.10
2022-08-25T04:39:25.660Z,4.30
2022-08-25T04:41:53.424Z,4.88
2022-08-25T04:44:21.493Z,4.55
2022-08-25T04:46:49.989Z,4.63
2022-08-25T04:49:17.737Z,4.40
2022-08-25T04:51:45.583Z,3.97
2022-08-25T04:54:16.960Z,4.63
2022-08-25T04:56:45.017Z,4.30
2022-08-25T04:59:14.535Z,4.18
2022-08-25T05:01:47.197Z,4.55
2022-08-25T05:04:27.630Z,4.28
2022-08-25T05:06:57.413Z,4.35
2022-08-25T05:09:25.492Z,4.60
2022-08-25T05:11:56.721Z,4.13
2022-08-25T05:14:26.211Z,4.00
2022-08-25T05:16:55.679Z,4.60
2022-08-25T05:19:24.423Z,4.93
2022-08-25T05:21:52.482Z,5.35
2022-08-25T05:24:30.163Z,6.10
2022-08-25T05:26:58.248Z,5.30
2022-08-25T05:29:27.206Z,5.68
2022-08-25T05:31:55.895Z,4.47
2022-08-25T05:34:24.853Z,5.18
2022-08-25T05:36:53.505Z,5.05
2022-08-25T05:39:21.488Z,5.00
2022-08-25T05:41:49.233Z,4.82
2022-08-25T05:44:20.886Z,5.25
2022-08-25T05:46:49.034Z,5.00
2022-08-25T05:49:16.780Z,4.93
2022-08-25T05:51:44.552Z,5.10
2022-08-25T05:54:12.197Z,4.80
2022-08-25T05:56:40.277Z,4.10
2022-08-25T05:59:09.579Z,5.03
2022-08-25T06:01:56.446Z,4.70
2022-08-25T06:04:24.396Z,4.28
2022-08-25T06:06:54.807Z,4.70
2022-08-25T06:09:23.188Z,5.10
2022-08-25T06:11:54.677Z,4.68
2022-08-25T06:14:23.220Z,4.43
2022-08-25T06:16:51.702Z,4.38
2022-08-25T06:19:19.652Z,4.55
2022-08-25T06:21:47.359Z,4.35
2022-08-25T06:24:15.807Z,3.90
2022-08-25T06:26:44.423Z,3.70
2022-08-25T06:29:14.139Z,4.57
2022-08-25T06:31:42.698Z,4.03
2022-08-25T06:34:10.992Z,4.25
2022-08-25T06:36:39.171Z,3.88
2022-08-25T06:39:07.235Z,4.05
2022-08-25T06:41:37.338Z,4.20
2022-08-25T06:44:05.711Z,3.20
2022-08-25T06:46:36.540Z,4.18
2022-08-25T06:49:05.962Z,4.32
2022-08-25T06:51:35.755Z,3.90
2022-08-25T06:54:04.227Z,3.80
2022-08-25T06:56:31.862Z,4.18
2022-08-25T06:58:59.566Z,4.05
2022-08-25T07:01:27.539Z,5.22
2022-08-25T07:04:00.314Z,6.20
2022-08-25T07:06:29.061Z,4.03
2022-08-25T07:08:56.913Z,3.63
2022-08-25T07:11:24.763Z,3.83
2022-08-25T07:13:52.612Z,3.13
2022-08-25T07:16:21.174Z,3.13
2022-08-25T07:18:51.447Z,3.33
2022-08-25T07:21:23.055Z,3.20
2022-08-25T07:23:53.646Z,2.78
2022-08-25T07:26:37.381Z,3.40
2022-08-25T07:29:10.573Z,3.30
2022-08-25T07:31:38.786Z,2.90
2022-08-25T07:34:25.777Z,3.03
2022-08-25T07:36:54.635Z,2.50
2022-08-25T07:39:23.525Z,2.72
2022-08-25T07:41:52.201Z,2.47
2022-08-25T07:44:22.020Z,2.70
2022-08-25T07:46:50.944Z,2.75
2022-08-25T07:49:23.551Z,2.88
2022-08-25T07:52:04.995Z,2.40
2022-08-25T07:54:37.629Z,2.45
2022-08-25T07:57:07.519Z,2.67
2022-08-25T07:59:39.261Z,2.30
2022-08-25T08:02:09.101Z,2.10
2022-08-25T08:04:48.954Z,2.38
2022-08-25T08:07:18.723Z,2.47
2022-08-25T08:09:46.785Z,2.50
2022-08-25T08:12:15.201Z,2.25
2022-08-25T08:14:44.846Z,3.35
2022-08-25T08:17:13.916Z,2.67
2022-08-25T08:19:44.837Z,2.53
2022-08-25T08:22:15.655Z,2.53
2022-08-25T08:27:22.735Z,2.92
2022-08-25T08:29:50.669Z,2.15
2022-08-25T08:32:18.605Z,3.20
2022-08-25T08:34:51.257Z,2.45
2022-08-25T08:37:19.383Z,2.50
2022-08-25T08:39:53.084Z,2.17
2022-08-25T08:42:36.767Z,2.63
2022-08-25T08:45:11.261Z,2.50
2022-08-25T08:47:50.688Z,2.55
2022-08-25T08:50:28.157Z,2.13
2022-08-25T08:53:06.667Z,2.38
2022-08-25T08:56:05.840Z,2.10
2022-08-25T08:58:40.101Z,2.60
2022-08-25T09:01:11.129Z,2.85
2022-08-25T09:06:09.719Z,2.30
2022-08-25T09:08:39.053Z,2.53
2022-08-25T09:11:16.507Z,2.20
2022-08-25T09:13:59.063Z,2.10
2022-08-25T09:16:57.306Z,2.38
2022-08-25T09:19:43.745Z,2.25
2022-08-25T09:22:35.347Z,2.75
2022-08-25T09:25:16.356Z,2.40
2022-08-25T09:28:15.951Z,2.50
2022-08-25T09:30:46.859Z,2.25
2022-08-25T09:33:20.939Z,2.55
2022-08-25T09:35:50.341Z,2.40
2022-08-25T09:38:21.536Z,3.03
2022-08-25T09:40:51.332Z,2.65
2022-08-25T09:43:21.929Z,2.17
2022-08-25T09:45:56.434Z,1.77
2022-08-25T09:48:27.016Z,2.22
2022-08-25T09:51:01.996Z,2.20
2022-08-25T09:53:33.892Z,2.30
2022-08-25T09:56:07.414Z,2.42
2022-08-25T09:58:35.172Z,2.60
2022-08-25T10:01:09.352Z,2.05
2022-08-25T10:03:37.071Z,2.00
2022-08-25T10:06:05.566Z,2.13
2022-08-25T10:08:40.025Z,2.05
2022-08-25T10:11:10.493Z,2.00
2022-08-25T10:13:40.113Z,2.65
2022-08-25T10:16:20.166Z,2.30
2022-08-25T10:19:00.860Z,2.53
2022-08-25T10:21:28.721Z,2.08
2022-08-25T10:23:56.587Z,3.03
2022-08-25T10:26:35.056Z,2.17
2022-08-25T10:29:32.558Z,2.15
2022-08-25T10:32:24.373Z,1.80
2022-08-25T10:34:56.704Z,2.10
2022-08-25T10:37:41.536Z,1.95
2022-08-25T10:40:28.203Z,2.08
2022-08-25T10:43:09.082Z,2.17
2022-08-25T10:45:46.002Z,1.80
2022-08-25T10:48:26.074Z,2.20
2022-08-25T10:51:08.785Z,2.10
2022-08-25T10:53:56.594Z,1.75
2022-08-25T10:56:28.255Z,1.85
2022-08-25T10:59:00.051Z,1.65
2022-08-25T11:01:43.798Z,2.03
2022-08-25T11:04:36.659Z,2.10
2022-08-25T11:07:08.477Z,2.30
2022-08-25T11:09:42.263Z,2.03
2022-08-25T11:12:12.443Z,1.98
2022-08-25T11:14:49.181Z,2.15
2022-08-25T11:17:23.690Z,2.47
2022-08-25T11:19:53.668Z,2.08
2022-08-25T11:22:34.479Z,1.55
2022-08-25T11:25:04.511Z,1.70
2022-08-25T11:27:37.875Z,1.63
2022-08-25T11:30:08.463Z,1.98
2022-08-25T11:32:37.842Z,2.08
2022-08-25T11:37:33.946Z,1.73
2022-08-25T11:40:05.792Z,1.75
2022-08-25T11:42:43.216Z,1.60
2022-08-25T11:45:14.161Z,2.05
2022-08-25T11:48:00.811Z,1.63
2022-08-25T11:50:35.094Z,2.05
2022-08-25T11:53:13.881Z,2.03
2022-08-25T11:55:41.585Z,2.08
2022-08-25T11:58:21.526Z,1.70
2022-08-25T12:00:50.562Z,1.80
2022-08-25T12:03:36.560Z,1.90
2022-08-25T12:06:16.740Z,1.65
2022-08-25T12:08:49.770Z,1.73
2022-08-25T12:11:39.425Z,1.77
2022-08-25T12:14:16.636Z,1.67
2022-08-25T12:17:03.187Z,1.70
2022-08-25T12:19:38.072Z,1.58
2022-08-25T12:22:05.916Z,2.15
2022-08-25T12:24:47.640Z,1.50
2022-08-25T12:27:34.740Z,1.90
2022-08-25T12:30:02.697Z,1.83
2022-08-25T12:32:38.993Z,1.75
2022-08-25T12:35:10.426Z,1.30
2022-08-25T12:37:55.124Z,1.65
2022-08-25T12:40:29.139Z,1.40
2022-08-25T12:43:05.324Z,1.73
2022-08-25T12:45:36.582Z,1.52
2022-08-25T12:48:40.682Z,1.50
2022-08-25T12:51:19.678Z,1.40
2022-08-25T12:53:49.881Z,1.80
2022-08-25T12:56:23.949Z,1.52
2022-08-25T12:59:00.173Z,2.33
2022-08-25T13:01:49.457Z,1.73
2022-08-25T13:04:17.474Z,1.90
2022-08-25T13:07:03.917Z,1.88
2022-08-25T13:09:51.386Z,1.50
2022-08-25T13:12:22.754Z,1.50
2022-08-25T13:14:54.972Z,2.85
2022-08-25T13:17:30.315Z,1.80
2022-08-25T13:20:19.916Z,1.40
2022-08-25T13:22:55.258Z,1.52
2022-08-25T13:25:32.141Z,1.80
2022-08-25T13:28:01.976Z,1.50
2022-08-25T13:30:34.362Z,1.70
2022-08-25T13:33:16.735Z,1.27
2022-08-25T13:35:49.288Z,1.50
2022-08-25T13:38:21.913Z,1.60
2022-08-25T13:40:49.990Z,1.38
2022-08-25T13:43:17.810Z,1.20
2022-08-25T13:45:55.304Z,1.40
2022-08-25T13:48:34.492Z,1.30
2022-08-25T13:51:13.930Z,1.92
2022-08-25T13:53:48.661Z,1.67
2022-08-25T13:56:23.824Z,1.98
2022-08-25T13:58:53.404Z,1.27
2022-08-25T14:01:47.498Z,1.30
2022-08-25T14:04:21.905Z,1.58
2022-08-25T14:07:06.234Z,1.30
2022-08-25T14:09:46.952Z,1.20
2022-08-25T14:12:30.346Z,1.70
2022-08-25T14:14:59.322Z,1.35
2022-08-25T14:17:38.343Z,1.10
2022-08-25T14:20:17.416Z,1.52
2022-08-25T14:25:15.545Z,1.50
2022-08-25T14:28:03.672Z,1.60
2022-08-25T14:33:01.478Z,1.27
2022-08-25T14:35:29.659Z,1.60
2022-08-25T14:37:59.296Z,1.38
2022-08-25T14:40:30.865Z,1.38
2022-08-25T14:43:02.188Z,1.40
2022-08-25T14:45:31.596Z,1.90
2022-08-25T14:48:02.975Z,1.20
2022-08-25T14:50:30.868Z,1.67
2022-08-25T14:53:01.229Z,1.70
2022-08-25T14:55:31.339Z,1.45
2022-08-25T14:58:00.198Z,1.73
2022-08-25T15:00:28.821Z,3.05
2022-08-25T15:02:56.724Z,1.60
2022-08-25T15:05:36.252Z,1.80
2022-08-25T15:08:33.373Z,1.25
2022-08-25T15:11:01.777Z,1.50
2022-08-25T15:13:36.777Z,1.23
2022-08-25T15:16:04.974Z,1.45
2022-08-25T15:18:32.632Z,1.48
2022-08-25T15:21:00.740Z,1.33
2022-08-25T15:23:29.468Z,1.40
2022-08-25T15:25:57.474Z,1.63
2022-08-25T15:28:25.322Z,1.65
2022-08-25T15:30:54.766Z,1.55
2022-08-25T15:33:22.842Z,1.88
2022-08-25T15:35:50.550Z,1.63
2022-08-25T15:38:20.736Z,1.40
2022-08-25T15:40:48.588Z,2.05
2022-08-25T15:43:16.403Z,1.80
2022-08-25T15:45:46.269Z,1.90
2022-08-25T15:48:14.273Z,1.90
2022-08-25T15:50:42.520Z,1.90
2022-08-25T15:53:10.678Z,2.58
2022-08-25T15:55:39.915Z,2.10
2022-08-25T15:58:08.747Z,1.33
2022-08-25T16:00:37.824Z,1.92
2022-08-25T16:03:08.050Z,1.77
2022-08-25T16:05:37.387Z,2.05
2022-08-25T16:08:05.349Z,1.30
2022-08-25T16:10:35.278Z,1.90
2022-08-25T16:13:04.855Z,2.08
2022-08-25T16:15:33.438Z,1.75
2022-08-25T16:18:01.472Z,1.65
2022-08-25T16:20:33.944Z,1.90
2022-08-25T16:23:03.856Z,1.73
2022-08-25T16:25:31.825Z,1.70
2022-08-25T16:27:59.604Z,2.00
2022-08-25T16:30:27.519Z,1.90
2022-08-25T16:32:55.747Z,2.97
2022-08-25T16:35:23.740Z,1.90
2022-08-25T16:37:51.529Z,2.28
2022-08-25T16:40:22.806Z,3.03
2022-08-25T16:42:50.887Z,2.35
2022-08-25T16:45:18.781Z,1.92
2022-08-25T16:47:46.606Z,2.00
2022-08-25T16:50:15.935Z,1.60
2022-08-25T16:53:02.318Z,1.83
2022-08-25T16:55:39.122Z,2.33
2022-08-25T16:58:07.818Z,2.10
2022-08-25T17:00:36.802Z,2.03
2022-08-25T17:03:05.466Z,1.95
2022-08-25T17:05:33.707Z,3.20
2022-08-25T17:08:20.303Z,1.75
2022-08-25T17:10:48.013Z,1.77
2022-08-25T17:13:15.751Z,2.13
2022-08-25T17:15:44.765Z,1.80
2022-08-25T17:18:13.229Z,2.10
2022-08-25T17:20:42.233Z,2.58
2022-08-25T17:25:41.244Z,2.25
2022-08-25T17:28:12.250Z,1.95
2022-08-25T17:30:41.902Z,2.08
2022-08-25T17:33:09.601Z,2.10
2022-08-25T17:35:44.472Z,2.15
2022-08-25T17:38:13.044Z,2.33
2022-08-25T17:40:40.839Z,2.83
2022-08-25T17:43:09.082Z,2.00
2022-08-25T17:45:37.550Z,1.80
2022-08-25T17:48:08.874Z,2.57
2022-08-25T17:50:39.138Z,1.60
2022-08-25T17:53:07.614Z,1.73
2022-08-25T17:55:37.434Z,1.80
2022-08-25T17:58:05.472Z,2.20
2022-08-25T18:00:33.345Z,1.88
2022-08-25T18:03:04.077Z,2.15
2022-08-25T18:05:33.008Z,2.25
2022-08-25T18:08:01.045Z,2.50
2022-08-25T18:10:31.628Z,3.17
2022-08-25T18:13:01.963Z,2.38
2022-08-25T18:15:30.920Z,2.83
2022-08-25T18:17:58.492Z,3.25
2022-08-25T18:20:26.301Z,3.65
2022-08-25T18:23:00.524Z,3.20
2022-08-25T18:25:28.228Z,3.42
2022-08-25T18:27:57.745Z,3.35
2022-08-25T18:30:26.356Z,2.80
2022-08-25T18:32:55.227Z,2.97
2022-08-25T18:35:26.623Z,2.90
2022-08-25T18:38:12.949Z,2.20
2022-08-25T18:40:40.863Z,2.65
2022-08-25T18:43:09.524Z,2.50
2022-08-25T18:45:40.348Z,2.78
2022-08-25T18:48:08.557Z,2.90
2022-08-25T18:50:37.270Z,2.40
2022-08-25T18:53:06.290Z,2.60
2022-08-25T18:55:34.381Z,2.90
2022-08-25T18:58:02.881Z,2.38
2022-08-25T19:00:31.957Z,3.00
2022-08-25T19:03:00.126Z,2.60
2022-08-25T19:05:32.645Z,2.50
2022-08-25T19:08:02.084Z,2.40
2022-08-25T19:10:31.001Z,2.92
2022-08-25T19:12:58.669Z,2.60
2022-08-25T19:15:37.348Z,2.70
2022-08-25T19:18:09.218Z,2.45
2022-08-25T19:20:38.679Z,1.95
2022-08-25T19:23:08.804Z,2.53
2022-08-25T19:25:36.881Z,2.90
2022-08-25T19:28:12.109Z,2.38
2022-08-25T19:30:50.173Z,2.55
2022-08-25T19:33:42.699Z,2.55
2022-08-25T19:36:09.029Z,2.28
2022-08-25T19:38:37.607Z,2.83
2022-08-25T19:41:10.782Z,2.50
2022-08-25T19:43:55.437Z,2.65
2022-08-25T19:46:32.705Z,2.80
2022-08-25T19:49:07.932Z,2.50
2022-08-25T19:51:39.675Z,2.85
2022-08-25T19:54:11.503Z,2.80
2022-08-25T19:56:53.646Z,3.17
2022-08-25T19:59:34.341Z,3.00
2022-08-25T20:02:08.981Z,2.88
2022-08-25T20:04:38.670Z,3.10
2022-08-25T20:07:07.562Z,2.70
2022-08-25T20:09:40.966Z,3.50
2022-08-25T20:12:10.339Z,2.95
2022-08-25T20:14:38.340Z,3.08
2022-08-25T20:17:14.332Z,3.70
2022-08-25T20:19:52.348Z,3.10
2022-08-25T20:22:24.999Z,3.10
2022-08-25T20:24:57.696Z,3.00
2022-08-25T20:27:28.415Z,3.22
2022-08-25T20:29:59.676Z,4.15
2022-08-25T20:32:32.408Z,3.00
2022-08-25T20:35:02.825Z,3.92
2022-08-25T20:37:31.322Z,3.15
2022-08-25T20:42:29.615Z,3.50
2022-08-25T20:44:57.550Z,3.13
2022-08-25T20:47:25.465Z,2.70
2022-08-25T20:49:53.633Z,3.60
2022-08-25T20:52:24.214Z,3.65
2022-08-25T20:57:25.608Z,3.83
2022-08-25T20:59:55.432Z,3.83
2022-08-25T21:02:24.035Z,3.40
2022-08-25T21:04:52.102Z,3.03
2022-08-25T21:07:20.858Z,3.03
2022-08-25T21:09:51.764Z,3.60
2022-08-25T21:12:19.727Z,3.03
2022-08-25T21:14:48.197Z,3.42
2022-08-25T21:17:19.375Z,4.13
2022-08-25T21:22:16.761Z,3.80
2022-08-25T21:24:44.901Z,4.40
2022-08-25T21:27:12.580Z,3.50
2022-08-25T21:29:44.798Z,4.05
2022-08-25T21:32:22.785Z,3.35
2022-08-25T21:34:56.393Z,3.78
2022-08-25T21:37:24.833Z,3.67
2022-08-25T21:39:55.560Z,4.00
2022-08-25T21:42:24.840Z,4.07
2022-08-25T21:44:54.536Z,3.90
2022-08-25T21:47:23.315Z,4.80
2022-08-25T21:49:51.825Z,3.42
2022-08-25T21:52:28.137Z,3.70
2022-08-25T21:54:57.921Z,4.15
2022-08-25T21:57:25.769Z,4.07
2022-08-25T21:59:54.899Z,3.90
2022-08-25T22:02:25.910Z,4.03
2022-08-25T22:04:54.726Z,3.58
2022-08-25T22:07:24.495Z,3.33
2022-08-25T22:09:53.118Z,3.20
2022-08-25T22:12:20.677Z,3.75
2022-08-25T22:14:48.391Z,3.22
2022-08-25T22:17:16.964Z,3.72
2022-08-25T22:19:46.012Z,3.15
2022-08-25T22:22:15.787Z,3.42
2022-08-25T22:24:48.623Z,3.65
2022-08-25T22:27:17.218Z,3.40
2022-08-25T22:29:44.917Z,3.42
2022-08-25T22:32:13.766Z,3.70
2022-08-25T22:34:41.801Z,3.97
2022-08-25T22:37:11.994Z,3.10
2022-08-25T22:39:40.327Z,3.10
2022-08-25T22:42:08.132Z,3.92
2022-08-25T22:44:38.745Z,4.47
2022-08-25T22:47:09.297Z,3.38
2022-08-25T22:49:39.767Z,4.05
2022-08-25T22:52:12.675Z,3.78
2022-08-25T22:54:41.223Z,3.65
2022-08-25T22:57:08.906Z,3.25
2022-08-25T22:59:38.149Z,3.22
2022-08-25T23:02:06.239Z,3.65
2022-08-25T23:04:34.404Z,3.55
2022-08-25T23:07:02.769Z,3.30
2022-08-25T23:09:30.564Z,3.20
2022-08-25T23:11:58.684Z,3.35
2022-08-25T23:14:26.433Z,3.53
2022-08-25T23:16:56.067Z,3.10
2022-08-25T23:19:24.147Z,3.30
2022-08-25T23:22:11.349Z,3.75
2022-08-25T23:24:44.033Z,3.40
2022-08-25T23:27:13.408Z,3.67
2022-08-25T23:29:43.579Z,4.10
2022-08-25T23:32:14.077Z,3.35
2022-08-25T23:34:43.430Z,4.05
2022-08-25T23:37:15.126Z,3.67
2022-08-25T23:39:45.555Z,3.67
2022-08-25T23:42:13.275Z,4.13
2022-08-25T23:44:41.113Z,3.67
2022-08-25T23:47:08.770Z,3.67
2022-08-25T23:49:39.899Z,4.07
2022-08-25T23:52:07.519Z,3.70
2022-08-25T23:54:35.166Z,3.72
2022-08-25T23:57:02.917Z,3.85
2022-08-25T23:59:34.531Z,4.40
